createdAt,value
2018-12-06T00:00:24.688Z,1.07
2018-12-06T00:02:51.618Z,1.07
2018-12-06T00:05:18.458Z,1.00
2018-12-06T00:08:09.887Z,1.43
2018-12-06T00:10:37.052Z,1.27
2018-12-06T00:13:04.324Z,1.17
2018-12-06T00:15:31.782Z,1.43
2018-12-06T00:17:58.552Z,1.37
2018-12-06T00:20:25.234Z,1.07
2018-12-06T00:22:51.915Z,1.60
2018-12-06T00:25:18.655Z,0.97
2018-12-06T00:27:45.334Z,1.00
2018-12-06T00:30:24.434Z,1.30
2018-12-06T00:32:51.130Z,1.17
2018-12-06T00:35:17.833Z,1.20
2018-12-06T00:37:44.709Z,1.17
2018-12-06T00:40:12.148Z,1.30
2018-12-06T00:42:39.785Z,1.40
2018-12-06T00:45:07.385Z,1.80
2018-12-06T00:47:34.346Z,1.40
2018-12-06T00:50:01.117Z,1.23
2018-12-06T00:52:27.954Z,1.30
2018-12-06T00:54:54.728Z,1.10
2018-12-06T00:57:21.603Z,1.40
2018-12-06T00:59:49.259Z,1.57
2018-12-06T01:02:15.940Z,1.27
2018-12-06T01:04:42.694Z,1.30
2018-12-06T01:07:09.413Z,1.40
2018-12-06T01:09:36.473Z,1.47
2018-12-06T01:12:03.694Z,1.10
2018-12-06T01:14:36.548Z,1.50
2018-12-06T01:17:04.208Z,1.50
2018-12-06T01:19:31.863Z,1.47
2018-12-06T01:21:59.506Z,1.53
2018-12-06T01:24:27.220Z,1.70
2018-12-06T01:26:54.391Z,1.33
2018-12-06T01:29:21.665Z,1.30
2018-12-06T01:31:48.809Z,1.70
2018-12-06T01:34:15.776Z,1.73
2018-12-06T01:36:42.648Z,1.43
2018-12-06T01:39:10.455Z,1.30
2018-12-06T01:41:37.425Z,1.27
2018-12-06T01:44:04.204Z,1.10
2018-12-06T01:46:31.712Z,1.20
2018-12-06T01:48:58.632Z,1.10
2018-12-06T01:51:26.227Z,1.27
2018-12-06T01:53:53.059Z,1.13
2018-12-06T01:56:19.744Z,1.20
2018-12-06T01:58:46.653Z,1.20
2018-12-06T02:01:13.579Z,1.80
2018-12-06T02:03:40.737Z,1.00
2018-12-06T02:06:07.640Z,1.50
2018-12-06T02:08:34.520Z,1.43
2018-12-06T02:11:01.478Z,1.33
2018-12-06T02:13:29.106Z,1.40
2018-12-06T02:15:57.087Z,1.27
2018-12-06T02:18:23.823Z,1.70
2018-12-06T02:20:50.854Z,1.53
2018-12-06T02:23:18.499Z,1.10
2018-12-06T02:25:45.279Z,1.10
2018-12-06T02:28:12.046Z,1.43
2018-12-06T02:30:38.781Z,1.37
2018-12-06T02:33:05.443Z,1.60
2018-12-06T02:35:32.114Z,1.07
2018-12-06T02:37:59.546Z,1.33
2018-12-06T02:40:26.281Z,1.50
2018-12-06T02:42:53.038Z,1.07
2018-12-06T02:45:19.774Z,1.00
2018-12-06T02:47:46.465Z,1.20
2018-12-06T02:50:13.142Z,1.50
2018-12-06T02:52:40.608Z,1.03
2018-12-06T02:55:07.288Z,1.20
2018-12-06T02:57:34.111Z,1.20
2018-12-06T03:00:01.688Z,1.20
2018-12-06T03:02:29.106Z,1.70
2018-12-06T03:04:56.602Z,1.27
2018-12-06T03:07:24.008Z,1.70
2018-12-06T03:09:50.672Z,1.60
2018-12-06T03:12:17.405Z,1.20
2018-12-06T03:14:44.127Z,1.50
2018-12-06T03:17:11.608Z,1.37
2018-12-06T03:19:39.118Z,1.50
2018-12-06T03:22:05.803Z,1.10
2018-12-06T03:24:32.490Z,1.07
2018-12-06T03:26:59.222Z,1.10
2018-12-06T03:29:25.964Z,1.27
2018-12-06T03:31:53.544Z,1.33
2018-12-06T03:34:20.258Z,1.30
2018-12-06T03:36:47.744Z,0.90
2018-12-06T03:39:13.677Z,1.10
2018-12-06T03:41:40.441Z,1.40
2018-12-06T03:44:07.123Z,1.17
2018-12-06T03:46:33.818Z,1.20
2018-12-06T03:49:00.539Z,1.37
2018-12-06T03:51:27.236Z,1.30
2018-12-06T03:53:53.934Z,1.30
2018-12-06T03:56:20.667Z,1.30
2018-12-06T03:58:47.351Z,1.10
2018-12-06T04:01:14.044Z,1.27
2018-12-06T04:03:40.815Z,1.37
2018-12-06T04:06:08.233Z,1.17
2018-12-06T04:08:36.089Z,1.30
2018-12-06T04:11:02.880Z,1.20
2018-12-06T04:13:30.363Z,1.00
2018-12-06T04:15:57.125Z,1.03
2018-12-06T04:18:23.802Z,1.17
2018-12-06T04:20:50.506Z,1.37
2018-12-06T04:23:17.234Z,1.20
2018-12-06T04:25:43.949Z,1.40
2018-12-06T04:28:11.365Z,1.40
2018-12-06T04:30:38.088Z,1.27
2018-12-06T04:33:04.739Z,1.43
2018-12-06T04:35:31.585Z,1.47
2018-12-06T04:37:59.067Z,1.30
2018-12-06T04:40:26.519Z,1.33
2018-12-06T04:42:53.212Z,1.30
2018-12-06T04:45:19.921Z,1.70
2018-12-06T04:47:47.325Z,1.00
2018-12-06T04:50:14.020Z,1.20
2018-12-06T04:52:41.482Z,1.40
2018-12-06T04:55:08.329Z,1.50
2018-12-06T04:57:35.898Z,1.50
2018-12-06T05:00:03.526Z,1.30
2018-12-06T05:02:30.913Z,1.37
2018-12-06T05:04:57.585Z,1.47
2018-12-06T05:07:24.386Z,1.47
2018-12-06T05:09:51.088Z,1.43
2018-12-06T05:12:17.770Z,1.37
2018-12-06T05:14:44.459Z,1.50
2018-12-06T05:17:11.114Z,1.70
2018-12-06T05:19:38.544Z,1.70
2018-12-06T05:22:05.966Z,1.37
2018-12-06T05:24:32.672Z,1.50
2018-12-06T05:26:59.475Z,1.57
2018-12-06T05:29:26.146Z,1.50
2018-12-06T05:31:52.819Z,1.70
2018-12-06T05:34:19.509Z,1.93
2018-12-06T05:36:46.211Z,1.93
2018-12-06T05:39:12.886Z,1.83
2018-12-06T05:41:39.700Z,1.90
2018-12-06T05:44:06.408Z,1.73
2018-12-06T05:46:33.131Z,2.50
2018-12-06T05:49:00.628Z,2.27
2018-12-06T05:51:28.248Z,1.60
2018-12-06T05:53:55.061Z,1.80
2018-12-06T05:56:22.522Z,1.90
2018-12-06T05:58:49.187Z,1.73
2018-12-06T06:01:16.660Z,1.83
2018-12-06T06:03:44.072Z,2.10
2018-12-06T06:06:10.749Z,2.00
2018-12-06T06:08:38.227Z,1.60
2018-12-06T06:11:04.914Z,1.70
2018-12-06T06:13:34.508Z,2.03
2018-12-06T06:16:01.338Z,1.80
2018-12-06T06:18:28.522Z,2.23
2018-12-06T06:20:55.294Z,2.37
2018-12-06T06:23:22.766Z,2.50
2018-12-06T06:25:49.940Z,3.00
2018-12-06T06:28:16.637Z,2.77
2018-12-06T06:30:44.450Z,3.40
2018-12-06T06:33:11.690Z,3.23
2018-12-06T06:35:38.395Z,3.13
2018-12-06T06:38:05.161Z,2.73
2018-12-06T06:40:31.855Z,2.90
2018-12-06T06:42:59.352Z,2.67
2018-12-06T06:45:26.151Z,2.60
2018-12-06T06:47:52.884Z,2.80
2018-12-06T06:50:19.592Z,2.83
2018-12-06T06:52:47.107Z,2.20
2018-12-06T06:55:14.503Z,2.07
2018-12-06T06:57:41.995Z,2.30
2018-12-06T07:00:09.511Z,2.03
2018-12-06T07:02:36.181Z,2.30
2018-12-06T07:05:02.895Z,2.13
2018-12-06T07:07:29.607Z,2.60
2018-12-06T07:09:57.057Z,2.20
2018-12-06T07:12:24.504Z,2.03
2018-12-06T07:14:51.974Z,2.27
2018-12-06T07:17:19.400Z,2.20
2018-12-06T07:19:46.093Z,2.60
2018-12-06T07:22:12.823Z,2.30
2018-12-06T07:24:39.467Z,2.73
2018-12-06T07:27:06.135Z,2.67
2018-12-06T07:29:32.884Z,2.17
2018-12-06T07:31:59.567Z,2.13
2018-12-06T07:34:26.982Z,2.00
2018-12-06T07:36:53.738Z,2.17
2018-12-06T07:39:20.421Z,2.10
2018-12-06T07:41:47.088Z,2.20
2018-12-06T07:44:13.847Z,2.17
2018-12-06T07:46:40.560Z,2.17
2018-12-06T07:49:07.241Z,2.00
2018-12-06T07:51:34.737Z,2.50
2018-12-06T07:54:01.438Z,1.97
2018-12-06T07:56:28.168Z,2.17
2018-12-06T07:58:54.918Z,2.00
2018-12-06T08:01:22.335Z,1.90
2018-12-06T08:03:49.105Z,1.70
2018-12-06T08:06:15.791Z,2.43
2018-12-06T08:08:42.489Z,1.83
2018-12-06T08:11:09.247Z,1.90
2018-12-06T08:13:36.692Z,1.87
2018-12-06T08:16:04.117Z,1.57
2018-12-06T08:18:30.856Z,1.87
2018-12-06T08:20:57.511Z,1.87
2018-12-06T08:23:24.233Z,1.93
2018-12-06T08:25:50.993Z,1.80
2018-12-06T08:28:17.672Z,1.90
2018-12-06T08:30:44.410Z,1.63
2018-12-06T08:33:11.143Z,1.73
2018-12-06T08:35:38.529Z,1.77
2018-12-06T08:38:05.193Z,1.70
2018-12-06T08:40:31.948Z,1.83
2018-12-06T08:42:58.641Z,1.80
2018-12-06T08:45:25.347Z,1.67
2018-12-06T08:47:52.810Z,1.77
2018-12-06T08:50:21.259Z,1.70
2018-12-06T08:52:46.990Z,1.70
2018-12-06T08:55:14.795Z,1.97
2018-12-06T08:57:42.066Z,1.73
2018-12-06T09:00:09.035Z,1.60
2018-12-06T09:02:35.707Z,1.77
2018-12-06T09:05:02.445Z,1.77
2018-12-06T09:07:30.006Z,1.50
2018-12-06T09:09:57.414Z,1.67
2018-12-06T09:12:24.112Z,2.07
2018-12-06T09:14:51.590Z,1.97
2018-12-06T09:17:18.370Z,1.60
2018-12-06T09:19:45.062Z,1.50
2018-12-06T09:22:11.823Z,1.70
2018-12-06T09:24:38.553Z,1.93
2018-12-06T09:27:05.222Z,2.10
2018-12-06T09:29:31.969Z,1.90
2018-12-06T09:31:58.715Z,2.00
2018-12-06T09:34:25.408Z,1.60
2018-12-06T09:36:52.170Z,1.60
2018-12-06T09:39:18.874Z,1.80
2018-12-06T09:41:46.294Z,1.77
2018-12-06T09:44:13.064Z,1.90
2018-12-06T09:46:40.508Z,1.90
2018-12-06T09:49:07.231Z,2.33
2018-12-06T09:51:33.933Z,2.33
2018-12-06T09:54:00.671Z,2.30
2018-12-06T09:56:27.399Z,2.37
2018-12-06T09:58:54.113Z,2.33
2018-12-06T10:01:21.387Z,2.20
2018-12-06T10:03:48.121Z,2.27
2018-12-06T10:06:15.530Z,2.23
2018-12-06T10:08:42.202Z,2.10
2018-12-06T10:11:09.712Z,2.43
2018-12-06T10:13:36.396Z,2.13
2018-12-06T10:16:03.161Z,1.97
2018-12-06T10:18:29.867Z,2.43
2018-12-06T10:20:56.539Z,2.50
2018-12-06T10:23:23.927Z,1.90
2018-12-06T10:25:50.817Z,2.27
2018-12-06T10:28:18.247Z,2.50
2018-12-06T10:30:45.118Z,2.70
2018-12-06T10:33:12.540Z,2.80
2018-12-06T10:35:39.178Z,2.50
2018-12-06T10:38:06.051Z,2.70
2018-12-06T10:40:34.342Z,2.43
2018-12-06T10:43:01.095Z,2.23
2018-12-06T10:45:27.868Z,2.23
2018-12-06T10:47:54.812Z,2.80
2018-12-06T10:50:21.661Z,3.00
2018-12-06T10:52:48.407Z,2.90
2018-12-06T10:55:15.826Z,2.40
2018-12-06T10:57:42.808Z,2.40
2018-12-06T11:00:09.623Z,2.83
2018-12-06T11:02:42.361Z,2.60
2018-12-06T11:05:09.054Z,2.47
2018-12-06T11:07:35.743Z,2.80
2018-12-06T11:10:03.267Z,2.30
2018-12-06T11:12:29.954Z,2.83
2018-12-06T11:14:56.620Z,3.07
2018-12-06T11:17:23.308Z,2.37
2018-12-06T11:19:49.962Z,2.70
2018-12-06T11:22:16.725Z,2.47
2018-12-06T11:24:43.454Z,2.40
2018-12-06T11:27:10.115Z,2.50
2018-12-06T11:29:36.834Z,3.00
2018-12-06T11:32:04.287Z,2.40
2018-12-06T11:34:31.690Z,2.30
2018-12-06T11:36:58.488Z,2.10
2018-12-06T11:39:25.903Z,2.77
2018-12-06T11:41:52.591Z,2.90
2018-12-06T11:44:20.098Z,2.80
2018-12-06T11:46:46.800Z,2.93
2018-12-06T11:49:13.509Z,2.53
2018-12-06T11:51:40.969Z,2.53
2018-12-06T11:54:08.393Z,2.70
2018-12-06T11:56:35.073Z,3.33
2018-12-06T11:59:02.577Z,2.63
2018-12-06T12:01:29.290Z,2.53
2018-12-06T12:03:55.989Z,3.00
2018-12-06T12:06:22.738Z,2.60
2018-12-06T12:08:50.162Z,3.00
2018-12-06T12:11:16.869Z,2.73
2018-12-06T12:13:43.597Z,2.50
2018-12-06T12:16:10.988Z,2.63
2018-12-06T12:18:37.650Z,2.80
2018-12-06T12:21:04.435Z,2.83
2018-12-06T12:23:31.940Z,2.60
2018-12-06T12:25:58.657Z,2.50
2018-12-06T12:28:25.372Z,2.73
2018-12-06T12:30:52.027Z,2.50
2018-12-06T12:33:18.676Z,2.77
2018-12-06T12:35:45.398Z,2.93
2018-12-06T12:38:13.038Z,2.67
2018-12-06T12:40:39.769Z,2.90
2018-12-06T12:43:07.288Z,2.83
2018-12-06T12:45:33.956Z,2.73
2018-12-06T12:48:00.645Z,2.90
2018-12-06T12:50:27.332Z,2.87
2018-12-06T12:52:54.016Z,2.70
2018-12-06T12:55:20.757Z,2.77
2018-12-06T12:57:47.470Z,2.70
2018-12-06T13:00:14.912Z,3.00
2018-12-06T13:02:43.187Z,2.63
2018-12-06T13:05:09.941Z,2.90
2018-12-06T13:07:37.341Z,2.27
2018-12-06T13:10:04.107Z,3.00
2018-12-06T13:12:30.794Z,2.70
2018-12-06T13:14:57.489Z,2.30
2018-12-06T13:17:24.212Z,2.90
2018-12-06T13:19:50.901Z,2.60
2018-12-06T13:22:18.332Z,2.80
2018-12-06T13:24:45.031Z,2.97
2018-12-06T13:27:11.747Z,3.53
2018-12-06T13:29:38.511Z,3.10
2018-12-06T13:32:05.247Z,3.37
2018-12-06T13:34:31.950Z,3.30
2018-12-06T13:36:59.446Z,3.53
2018-12-06T13:39:26.127Z,3.37
2018-12-06T13:41:52.823Z,3.83
2018-12-06T13:44:19.551Z,3.37
2018-12-06T13:46:46.249Z,3.80
2018-12-06T13:49:12.980Z,4.10
2018-12-06T13:51:39.672Z,3.77
2018-12-06T13:54:06.371Z,4.40
2018-12-06T13:56:33.065Z,3.87
2018-12-06T13:58:59.783Z,4.70
2018-12-06T14:01:27.353Z,3.77
2018-12-06T14:03:53.960Z,3.73
2018-12-06T14:06:20.728Z,4.37
2018-12-06T14:08:47.427Z,4.40
2018-12-06T14:11:14.094Z,4.03
2018-12-06T14:13:41.547Z,4.23
2018-12-06T14:16:10.613Z,5.07
2018-12-06T14:18:35.763Z,5.30
2018-12-06T14:21:02.784Z,6.90
2018-12-06T14:23:30.301Z,5.60
2018-12-06T14:25:58.473Z,6.00
2018-12-06T14:28:26.277Z,5.10
2018-12-06T14:30:54.669Z,5.83
2018-12-06T14:33:22.117Z,5.80
2018-12-06T14:35:50.440Z,5.47
2018-12-06T14:38:17.369Z,7.20
2018-12-06T14:40:44.136Z,7.03
2018-12-06T14:43:10.822Z,6.40
2018-12-06T14:45:38.281Z,5.87
2018-12-06T14:48:05.148Z,6.33
2018-12-06T14:50:31.813Z,6.27
2018-12-06T14:52:58.678Z,6.20
2018-12-06T14:55:26.090Z,6.23
2018-12-06T14:57:52.976Z,6.30
2018-12-06T15:00:19.803Z,7.03
2018-12-06T15:02:46.675Z,6.23
2018-12-06T15:05:14.261Z,7.20
2018-12-06T15:07:40.981Z,7.50
2018-12-06T15:10:08.498Z,7.23
2018-12-06T15:12:35.229Z,7.13
2018-12-06T15:15:02.730Z,7.40
2018-12-06T15:17:29.522Z,7.67
2018-12-06T15:19:56.223Z,9.90
2018-12-06T15:22:23.708Z,9.63
2018-12-06T15:24:50.461Z,8.77
2018-12-06T15:27:17.196Z,8.30
2018-12-06T15:29:43.880Z,8.17
2018-12-06T15:32:11.051Z,8.97
2018-12-06T15:34:37.929Z,8.77
2018-12-06T15:37:04.613Z,8.47
2018-12-06T15:39:31.800Z,7.90
2018-12-06T15:42:00.139Z,8.57
2018-12-06T15:44:27.605Z,9.50
2018-12-06T15:46:54.368Z,9.20
2018-12-06T15:49:21.905Z,9.63
2018-12-06T15:51:49.809Z,9.93
2018-12-06T15:54:16.926Z,9.13
2018-12-06T15:56:44.050Z,9.77
2018-12-06T15:59:10.726Z,9.33
2018-12-06T16:01:37.740Z,9.20
2018-12-06T16:04:04.418Z,8.90
2018-12-06T16:06:31.831Z,9.23
2018-12-06T16:08:59.422Z,8.73
2018-12-06T16:11:26.860Z,8.53
2018-12-06T16:13:53.552Z,8.60
2018-12-06T16:16:20.350Z,10.70
2018-12-06T16:18:47.094Z,15.03
2018-12-06T16:21:14.208Z,12.67
2018-12-06T16:23:40.982Z,14.90
2018-12-06T16:26:08.441Z,13.87
2018-12-06T16:28:35.143Z,13.27
2018-12-06T16:31:02.316Z,12.60
2018-12-06T16:33:29.054Z,12.60
2018-12-06T16:35:56.532Z,12.60
2018-12-06T16:38:23.317Z,15.30
2018-12-06T16:40:50.054Z,14.77
2018-12-06T16:43:16.802Z,13.33
2018-12-06T16:45:43.759Z,13.30
2018-12-06T16:48:10.603Z,14.33
2018-12-06T16:50:37.752Z,13.90
2018-12-06T16:53:04.534Z,15.37
2018-12-06T16:55:31.303Z,13.77
2018-12-06T16:57:57.976Z,14.70
2018-12-06T17:00:24.806Z,13.83
2018-12-06T17:02:51.492Z,13.60
2018-12-06T17:05:19.171Z,12.73
2018-12-06T17:07:46.174Z,12.70
2018-12-06T17:10:13.636Z,12.97
2018-12-06T17:12:40.402Z,12.13
2018-12-06T17:15:08.115Z,12.60
2018-12-06T17:17:35.533Z,13.50
2018-12-06T17:20:03.636Z,11.77
2018-12-06T17:22:30.675Z,12.17
2018-12-06T17:24:57.389Z,12.13
2018-12-06T17:27:24.816Z,11.70
2018-12-06T17:29:51.598Z,12.30
2018-12-06T17:32:19.034Z,12.73
2018-12-06T17:34:45.737Z,11.53
2018-12-06T17:37:12.513Z,15.30
2018-12-06T17:39:39.198Z,12.40
2018-12-06T17:42:05.890Z,12.43
2018-12-06T17:44:32.625Z,11.37
2018-12-06T17:46:59.391Z,13.17
2018-12-06T17:49:26.833Z,11.83
2018-12-06T17:51:53.547Z,10.60
2018-12-06T17:54:20.301Z,10.20
2018-12-06T17:56:46.995Z,13.10
2018-12-06T17:59:13.695Z,15.30
2018-12-06T18:01:41.190Z,10.90
2018-12-06T18:04:07.850Z,11.47
2018-12-06T18:06:34.611Z,12.07
2018-12-06T18:09:01.470Z,10.60
2018-12-06T18:11:28.245Z,11.50
2018-12-06T18:13:54.928Z,29.10
2018-12-06T18:16:21.688Z,20.47
2018-12-06T18:18:48.401Z,14.93
2018-12-06T18:21:15.119Z,10.03
2018-12-06T18:23:41.898Z,14.83
2018-12-06T18:26:08.628Z,10.87
2018-12-06T18:28:35.340Z,13.90
2018-12-06T18:31:02.056Z,15.37
2018-12-06T18:33:28.858Z,8.70
2018-12-06T18:35:55.550Z,23.13
2018-12-06T18:38:22.306Z,24.40
2018-12-06T18:40:49.016Z,13.47
2018-12-06T18:43:17.576Z,42.43
2018-12-06T18:45:43.226Z,13.97
2018-12-06T18:48:09.928Z,19.00
2018-12-06T18:50:36.716Z,13.27
2018-12-06T18:53:03.455Z,9.00
2018-12-06T18:55:30.167Z,8.27
2018-12-06T18:57:57.680Z,7.30
2018-12-06T19:00:25.661Z,7.10
2018-12-06T19:02:52.520Z,8.30
2018-12-06T19:05:19.390Z,8.17
2018-12-06T19:07:46.792Z,8.03
2018-12-06T19:10:13.474Z,6.70
2018-12-06T19:12:40.202Z,7.90
2018-12-06T19:15:06.941Z,8.13
2018-12-06T19:17:33.629Z,8.90
2018-12-06T19:20:00.370Z,9.53
2018-12-06T19:22:27.022Z,8.97
2018-12-06T19:24:53.692Z,8.00
2018-12-06T19:27:20.489Z,8.00
2018-12-06T19:29:47.157Z,7.63
2018-12-06T19:32:13.818Z,8.07
2018-12-06T19:34:40.609Z,9.70
2018-12-06T19:37:07.307Z,9.27
2018-12-06T19:39:34.795Z,8.57
2018-12-06T19:42:01.533Z,8.10
2018-12-06T19:44:28.282Z,8.70
2018-12-06T19:46:54.938Z,7.37
2018-12-06T19:49:21.709Z,7.90
2018-12-06T19:51:48.383Z,9.37
2018-12-06T19:54:15.766Z,9.00
2018-12-06T19:56:42.671Z,7.63
2018-12-06T19:59:10.107Z,9.00
2018-12-06T20:01:36.835Z,8.37
2018-12-06T20:04:03.663Z,8.27
2018-12-06T20:06:30.322Z,8.57
2018-12-06T20:08:57.068Z,7.97
2018-12-06T20:11:23.794Z,7.97
2018-12-06T20:13:51.268Z,8.37
2018-12-06T20:16:17.954Z,9.57
2018-12-06T20:18:44.710Z,8.83
2018-12-06T20:21:11.442Z,8.30
2018-12-06T20:23:38.123Z,7.73
2018-12-06T20:26:04.878Z,7.83
2018-12-06T20:28:31.663Z,7.40
2018-12-06T20:30:58.398Z,8.10
2018-12-06T20:33:25.138Z,7.63
2018-12-06T20:35:51.812Z,8.70
2018-12-06T20:38:18.565Z,8.33
2018-12-06T20:40:45.289Z,8.43
2018-12-06T20:43:11.997Z,7.67
2018-12-06T20:45:38.705Z,7.80
2018-12-06T20:48:06.110Z,7.57
2018-12-06T20:50:32.902Z,8.17
2018-12-06T20:53:00.341Z,7.00
2018-12-06T20:55:27.387Z,6.90
2018-12-06T20:57:54.087Z,6.60
2018-12-06T21:00:20.871Z,7.30
2018-12-06T21:02:47.599Z,6.50
2018-12-06T21:05:14.329Z,7.77
2018-12-06T21:07:41.017Z,7.30
2018-12-06T21:10:08.517Z,7.73
2018-12-06T21:12:35.211Z,7.07
2018-12-06T21:15:01.978Z,7.07
2018-12-06T21:17:28.739Z,7.07
2018-12-06T21:19:55.425Z,6.43
2018-12-06T21:22:22.920Z,7.63
2018-12-06T21:24:49.654Z,7.80
2018-12-06T21:27:16.333Z,8.50
2018-12-06T21:29:43.151Z,6.67
2018-12-06T21:32:10.944Z,8.70
2018-12-06T21:34:37.610Z,7.53
2018-12-06T21:37:05.130Z,8.00
2018-12-06T21:39:31.918Z,6.40
2018-12-06T21:41:59.469Z,5.90
2018-12-06T21:44:26.936Z,7.17
2018-12-06T21:46:54.497Z,6.57
2018-12-06T21:49:21.923Z,7.10
2018-12-06T21:51:49.145Z,6.20
2018-12-06T21:54:16.080Z,6.53
2018-12-06T21:56:42.998Z,5.00
2018-12-06T21:59:10.513Z,6.17
2018-12-06T22:01:37.350Z,6.47
2018-12-06T22:04:04.067Z,6.10
2018-12-06T22:06:30.763Z,5.83
2018-12-06T22:08:58.247Z,5.67
2018-12-06T22:11:24.989Z,5.60
2018-12-06T22:13:51.652Z,4.97
2018-12-06T22:16:18.424Z,4.80
2018-12-06T22:18:45.088Z,6.07
2018-12-06T22:21:12.511Z,5.37
2018-12-06T22:23:39.255Z,5.40
2018-12-06T22:26:05.926Z,5.30
2018-12-06T22:28:34.209Z,5.23
2018-12-06T22:31:00.478Z,5.13
2018-12-06T22:33:27.187Z,5.13
2018-12-06T22:35:54.641Z,5.50
2018-12-06T22:38:21.452Z,5.10
2018-12-06T22:40:48.123Z,4.90
2018-12-06T22:43:16.101Z,5.00
2018-12-06T22:45:59.170Z,4.90
2018-12-06T22:48:25.911Z,5.27
2018-12-06T22:50:54.145Z,5.03
2018-12-06T22:53:21.189Z,4.93
2018-12-06T22:55:49.154Z,4.93
2018-12-06T22:58:15.957Z,4.40
2018-12-06T23:00:43.390Z,4.73
2018-12-06T23:03:10.274Z,4.93
2018-12-06T23:05:37.451Z,4.70
2018-12-06T23:08:04.480Z,4.77
2018-12-06T23:10:31.430Z,4.80
2018-12-06T23:12:58.710Z,4.60
2018-12-06T23:15:25.581Z,4.87
2018-12-06T23:17:53.432Z,4.67
2018-12-06T23:20:21.149Z,4.63
2018-12-06T23:22:49.045Z,4.43
2018-12-06T23:25:15.742Z,4.07
2018-12-06T23:27:43.305Z,4.40
2018-12-06T23:30:10.469Z,4.50
2018-12-06T23:32:37.302Z,4.23
2018-12-06T23:35:05.188Z,3.97
2018-12-06T23:37:31.872Z,4.57
2018-12-06T23:39:58.817Z,4.23
2018-12-06T23:42:26.343Z,4.00
2018-12-06T23:44:55.129Z,3.57
2018-12-06T23:47:22.760Z,3.83
2018-12-06T23:49:50.150Z,4.00
2018-12-06T23:52:17.415Z,3.33
2018-12-06T23:54:45.999Z,4.10
2018-12-06T23:57:13.725Z,3.50
2018-12-06T23:59:40.706Z,4.17
